sensor_id;sensor_type;location;lat;lon;timestamp;pressure;altitude;pressure_sealevel;temperature;humidity
43553;BME280;29153;42.696;23.218;2023-02-17T00:01:13;95377.95;;;-1.44;87.65
43553;BME280;29153;42.696;23.218;2023-02-17T00:03:36;95382.41;;;-1.34;88.27
43553;BME280;29153;42.696;23.218;2023-02-17T00:06:11;95379.66;;;-1.37;88.27
43553;BME280;29153;42.696;23.218;2023-02-17T00:08:38;95375.27;;;-1.51;88.21
43553;BME280;29153;42.696;23.218;2023-02-17T00:11:06;95378.15;;;-1.46;88.70
43553;BME280;29153;42.696;23.218;2023-02-17T00:13:33;95374.09;;;-1.48;88.44
43553;BME280;29153;42.696;23.218;2023-02-17T00:16:06;95380.80;;;-1.68;88.49
43553;BME280;29153;42.696;23.218;2023-02-17T00:18:34;95376.95;;;-1.58;88.80
43553;BME280;29153;42.696;23.218;2023-02-17T00:21:12;95376.91;;;-1.68;88.52
43553;BME280;29153;42.696;23.218;2023-02-17T00:23:40;95380.44;;;-1.65;88.72
43553;BME280;29153;42.696;23.218;2023-02-17T00:26:08;95380.69;;;-1.75;89.03
43553;BME280;29153;42.696;23.218;2023-02-17T00:28:35;95373.70;;;-1.74;89.32
43553;BME280;29153;42.696;23.218;2023-02-17T00:31:08;95375.05;;;-1.78;89.29
43553;BME280;29153;42.696;23.218;2023-02-17T00:33:37;95367.21;;;-1.74;89.32
43553;BME280;29153;42.696;23.218;2023-02-17T00:36:05;95372.77;;;-1.77;89.17
43553;BME280;29153;42.696;23.218;2023-02-17T00:38:34;95361.89;;;-1.77;89.56
43553;BME280;29153;42.696;23.218;2023-02-17T00:41:01;95361.45;;;-1.80;89.75
43553;BME280;29153;42.696;23.218;2023-02-17T00:43:29;95353.73;;;-1.89;89.86
43553;BME280;29153;42.696;23.218;2023-02-17T00:45:56;95351.37;;;-1.98;90.29
43553;BME280;29153;42.696;23.218;2023-02-17T00:48:24;95340.84;;;-2.01;91.01
43553;BME280;29153;42.696;23.218;2023-02-17T00:50:51;95341.33;;;-1.82;90.97
43553;BME280;29153;42.696;23.218;2023-02-17T00:53:19;95334.30;;;-1.78;90.68
43553;BME280;29153;42.696;23.218;2023-02-17T00:55:46;95339.98;;;-1.78;90.89
43553;BME280;29153;42.696;23.218;2023-02-17T00:58:15;95342.42;;;-1.77;91.02
43553;BME280;29153;42.696;23.218;2023-02-17T01:00:43;95339.02;;;-1.77;91.40
43553;BME280;29153;42.696;23.218;2023-02-17T01:03:10;95348.02;;;-1.69;91.36
43553;BME280;29153;42.696;23.218;2023-02-17T01:05:42;95351.30;;;-1.71;91.06
43553;BME280;29153;42.696;23.218;2023-02-17T01:08:10;95356.58;;;-1.65;91.55
43553;BME280;29153;42.696;23.218;2023-02-17T01:10:39;95347.61;;;-1.62;91.67
43553;BME280;29153;42.696;23.218;2023-02-17T01:13:08;95343.22;;;-1.62;91.59
43553;BME280;29153;42.696;23.218;2023-02-17T01:15:41;95343.67;;;-1.73;91.54
43553;BME280;29153;42.696;23.218;2023-02-17T01:18:09;95334.05;;;-1.68;90.95
43553;BME280;29153;42.696;23.218;2023-02-17T01:20:37;95335.03;;;-1.84;90.93
43553;BME280;29153;42.696;23.218;2023-02-17T01:23:05;95332.88;;;-1.80;91.36
43553;BME280;29153;42.696;23.218;2023-02-17T01:25:38;95338.20;;;-1.93;91.29
43553;BME280;29153;42.696;23.218;2023-02-17T01:28:07;95329.36;;;-1.88;91.76
43553;BME280;29153;42.696;23.218;2023-02-17T01:30:35;95339.66;;;-1.79;91.52
43553;BME280;29153;42.696;23.218;2023-02-17T01:33:02;95337.55;;;-1.95;91.54
43553;BME280;29153;42.696;23.218;2023-02-17T01:35:31;95330.66;;;-1.88;91.62
43553;BME280;29153;42.696;23.218;2023-02-17T01:37:59;95262.55;;;-2.42;91.68
43553;BME280;29153;42.696;23.218;2023-02-17T01:40:27;95335.05;;;-1.88;91.68
43553;BME280;29153;42.696;23.218;2023-02-17T01:42:55;95331.95;;;-2.02;91.59
43553;BME280;29153;42.696;23.218;2023-02-17T01:45:32;95323.97;;;-2.01;91.79
43553;BME280;29153;42.696;23.218;2023-02-17T01:48:11;95333.30;;;-1.92;91.43
43553;BME280;29153;42.696;23.218;2023-02-17T01:50:54;95334.39;;;-2.05;91.47
43553;BME280;29153;42.696;23.218;2023-02-17T01:53:18;95328.95;;;-2.14;91.98
43553;BME280;29153;42.696;23.218;2023-02-17T01:55:46;95332.64;;;-2.08;91.81
43553;BME280;29153;42.696;23.218;2023-02-17T01:58:14;95327.65;;;-2.14;91.91
43553;BME280;29153;42.696;23.218;2023-02-17T02:00:43;95324.08;;;-2.13;91.70
43553;BME280;29153;42.696;23.218;2023-02-17T02:03:12;95318.64;;;-2.22;92.21
43553;BME280;29153;42.696;23.218;2023-02-17T02:05:41;95325.27;;;-2.38;92.44
43553;BME280;29153;42.696;23.218;2023-02-17T02:08:10;95311.90;;;-2.27;92.73
43553;BME280;29153;42.696;23.218;2023-02-17T02:10:38;95311.94;;;-2.31;93.33
43553;BME280;29153;42.696;23.218;2023-02-17T02:13:06;95296.45;;;-2.24;92.95
43553;BME280;29153;42.696;23.218;2023-02-17T02:15:43;95189.54;;;-2.91;93.05
43553;BME280;29153;42.696;23.218;2023-02-17T02:18:20;95304.69;;;-2.21;93.34
43553;BME280;29153;42.696;23.218;2023-02-17T02:23:47;95313.98;;;-2.08;93.67
43553;BME280;29153;42.696;23.218;2023-02-17T02:26:31;95304.30;;;-2.14;94.07
43553;BME280;29153;42.696;23.218;2023-02-17T02:35:33;95317.83;;;-2.18;93.97
43553;BME280;29153;42.696;23.218;2023-02-17T02:38:17;95321.23;;;-2.22;93.60
43553;BME280;29153;42.696;23.218;2023-02-17T02:40:48;95319.03;;;-2.29;93.89
43553;BME280;29153;42.696;23.218;2023-02-17T02:43:15;95320.46;;;-2.26;93.57
43553;BME280;29153;42.696;23.218;2023-02-17T02:45:43;95316.93;;;-2.30;93.69
43553;BME280;29153;42.696;23.218;2023-02-17T02:48:11;95315.79;;;-2.27;93.67
43553;BME280;29153;42.696;23.218;2023-02-17T02:53:32;95314.02;;;-2.31;93.58
43553;BME280;29153;42.696;23.218;2023-02-17T03:07:20;95318.26;;;-2.34;94.16
43553;BME280;29153;42.696;23.218;2023-02-17T03:09:54;95317.12;;;-2.35;94.42
43553;BME280;29153;42.696;23.218;2023-02-17T03:12:25;95315.50;;;-2.32;94.69
43553;BME280;29153;42.696;23.218;2023-02-17T03:15:00;95318.55;;;-2.28;94.57
43553;BME280;29153;42.696;23.218;2023-02-17T03:17:28;95321.21;;;-2.37;94.77
43553;BME280;29153;42.696;23.218;2023-02-17T03:19:55;95319.46;;;-2.40;94.84
43553;BME280;29153;42.696;23.218;2023-02-17T03:22:24;95324.45;;;-2.39;95.11
43553;BME280;29153;42.696;23.218;2023-02-17T03:24:53;95319.69;;;-2.50;94.70
43553;BME280;29153;42.696;23.218;2023-02-17T03:27:20;95318.98;;;-2.44;94.79
43553;BME280;29153;42.696;23.218;2023-02-17T03:29:48;95311.35;;;-2.41;94.46
43553;BME280;29153;42.696;23.218;2023-02-17T03:32:15;95318.52;;;-2.47;94.14
43553;BME280;29153;42.696;23.218;2023-02-17T03:34:43;95304.97;;;-2.53;94.06
43553;BME280;29153;42.696;23.218;2023-02-17T03:37:10;95311.27;;;-2.52;94.52
43553;BME280;29153;42.696;23.218;2023-02-17T03:39:38;95318.27;;;-2.56;94.94
43553;BME280;29153;42.696;23.218;2023-02-17T03:42:05;95318.72;;;-2.49;94.97
43553;BME280;29153;42.696;23.218;2023-02-17T03:44:33;95315.57;;;-2.40;95.50
43553;BME280;29153;42.696;23.218;2023-02-17T03:47:00;95310.67;;;-2.39;96.23
43553;BME280;29153;42.696;23.218;2023-02-17T03:49:28;95319.13;;;-2.22;96.29
43553;BME280;29153;42.696;23.218;2023-02-17T03:51:55;95316.41;;;-2.25;95.84
43553;BME280;29153;42.696;23.218;2023-02-17T03:54:25;95318.52;;;-2.24;95.80
43553;BME280;29153;42.696;23.218;2023-02-17T03:56:53;95315.48;;;-2.13;95.16
43553;BME280;29153;42.696;23.218;2023-02-17T03:59:21;95319.84;;;-2.28;95.38
43553;BME280;29153;42.696;23.218;2023-02-17T04:01:49;95323.73;;;-2.28;95.80
43553;BME280;29153;42.696;23.218;2023-02-17T04:04:16;95310.28;;;-2.28;95.35
43553;BME280;29153;42.696;23.218;2023-02-17T04:06:44;95318.38;;;-2.27;95.56
43553;BME280;29153;42.696;23.218;2023-02-17T04:09:11;95308.27;;;-2.22;95.40
43553;BME280;29153;42.696;23.218;2023-02-17T04:11:39;95305.25;;;-2.30;95.28
43553;BME280;29153;42.696;23.218;2023-02-17T04:14:06;95310.77;;;-2.28;95.57
43553;BME280;29153;42.696;23.218;2023-02-17T04:16:34;95316.41;;;-2.25;95.58
43553;BME280;29153;42.696;23.218;2023-02-17T04:19:02;95316.05;;;-2.22;95.80
43553;BME280;29153;42.696;23.218;2023-02-17T04:21:30;95312.92;;;-2.17;95.93
43553;BME280;29153;42.696;23.218;2023-02-17T04:23:59;95306.88;;;-2.10;96.00
43553;BME280;29153;42.696;23.218;2023-02-17T04:26:27;95313.09;;;-2.15;95.86
43553;BME280;29153;42.696;23.218;2023-02-17T04:28:55;95311.14;;;-2.17;96.16
43553;BME280;29153;42.696;23.218;2023-02-17T04:31:23;95320.08;;;-2.01;95.78
43553;BME280;29153;42.696;23.218;2023-02-17T04:33:52;95314.95;;;-2.09;95.40
43553;BME280;29153;42.696;23.218;2023-02-17T04:36:20;95318.56;;;-2.14;95.58
43553;BME280;29153;42.696;23.218;2023-02-17T04:38:48;95319.25;;;-2.16;95.78
43553;BME280;29153;42.696;23.218;2023-02-17T04:41:15;95320.22;;;-2.17;95.56
43553;BME280;29153;42.696;23.218;2023-02-17T04:43:43;95327.90;;;-2.05;95.17
43553;BME280;29153;42.696;23.218;2023-02-17T04:46:10;95326.75;;;-2.21;94.95
43553;BME280;29153;42.696;23.218;2023-02-17T04:48:38;95322.57;;;-2.26;95.44
43553;BME280;29153;42.696;23.218;2023-02-17T04:51:06;95329.77;;;-2.32;95.32
43553;BME280;29153;42.696;23.218;2023-02-17T04:53:33;95329.97;;;-2.38;95.10
43553;BME280;29153;42.696;23.218;2023-02-17T04:56:00;95322.64;;;-2.34;95.19
43553;BME280;29153;42.696;23.218;2023-02-17T04:58:28;95329.88;;;-2.44;95.33
43553;BME280;29153;42.696;23.218;2023-02-17T05:00:58;95329.16;;;-2.38;95.63
43553;BME280;29153;42.696;23.218;2023-02-17T05:03:27;95312.39;;;-2.50;95.14
43553;BME280;29153;42.696;23.218;2023-02-17T05:05:55;95317.71;;;-2.48;95.67
43553;BME280;29153;42.696;23.218;2023-02-17T05:08:22;95320.17;;;-2.50;95.64
43553;BME280;29153;42.696;23.218;2023-02-17T05:10:51;95329.52;;;-2.41;96.07
43553;BME280;29153;42.696;23.218;2023-02-17T05:13:19;95330.88;;;-2.31;95.43
43553;BME280;29153;42.696;23.218;2023-02-17T05:15:47;95342.03;;;-2.26;95.42
43553;BME280;29153;42.696;23.218;2023-02-17T05:18:14;95331.84;;;-2.27;95.27
43553;BME280;29153;42.696;23.218;2023-02-17T05:20:42;95345.27;;;-2.24;95.46
43553;BME280;29153;42.696;23.218;2023-02-17T05:23:09;95339.80;;;-2.29;95.45
43553;BME280;29153;42.696;23.218;2023-02-17T05:25:37;95353.19;;;-2.21;95.37
43553;BME280;29153;42.696;23.218;2023-02-17T05:28:06;95352.15;;;-2.35;95.24
43553;BME280;29153;42.696;23.218;2023-02-17T05:30:34;95351.86;;;-2.36;95.81
43553;BME280;29153;42.696;23.218;2023-02-17T05:33:01;95363.17;;;-2.33;95.48
43553;BME280;29153;42.696;23.218;2023-02-17T05:35:29;95367.81;;;-2.24;95.47
43553;BME280;29153;42.696;23.218;2023-02-17T05:37:56;95376.17;;;-2.37;95.66
43553;BME280;29153;42.696;23.218;2023-02-17T05:40:24;95368.30;;;-2.25;95.85
43553;BME280;29153;42.696;23.218;2023-02-17T05:42:51;95382.41;;;-2.23;96.19
43553;BME280;29153;42.696;23.218;2023-02-17T05:45:19;95384.91;;;-2.11;95.85
43553;BME280;29153;42.696;23.218;2023-02-17T05:47:46;95387.27;;;-2.24;95.95
43553;BME280;29153;42.696;23.218;2023-02-17T05:50:14;95378.42;;;-2.11;96.10
43553;BME280;29153;42.696;23.218;2023-02-17T05:52:41;95397.33;;;-2.03;96.23
43553;BME280;29153;42.696;23.218;2023-02-17T05:55:09;95387.44;;;-2.03;96.04
43553;BME280;29153;42.696;23.218;2023-02-17T05:57:36;95388.86;;;-2.01;96.14
43553;BME280;29153;42.696;23.218;2023-02-17T06:00:04;95393.44;;;-2.03;96.12
43553;BME280;29153;42.696;23.218;2023-02-17T06:02:32;95392.43;;;-1.98;96.54
43553;BME280;29153;42.696;23.218;2023-02-17T06:04:59;95388.75;;;-1.85;96.70
43553;BME280;29153;42.696;23.218;2023-02-17T06:07:27;95388.59;;;-1.68;96.22
43553;BME280;29153;42.696;23.218;2023-02-17T06:09:54;95387.75;;;-1.65;95.97
43553;BME280;29153;42.696;23.218;2023-02-17T06:12:22;95392.81;;;-1.53;95.97
43553;BME280;29153;42.696;23.218;2023-02-17T06:14:50;95385.17;;;-1.50;95.83
43553;BME280;29153;42.696;23.218;2023-02-17T06:17:17;95385.95;;;-1.50;96.13
43553;BME280;29153;42.696;23.218;2023-02-17T06:19:45;95379.85;;;-1.38;96.55
43553;BME280;29153;42.696;23.218;2023-02-17T06:22:12;95382.92;;;-1.24;96.36
43553;BME280;29153;42.696;23.218;2023-02-17T06:24:40;95386.76;;;-1.16;96.31
43553;BME280;29153;42.696;23.218;2023-02-17T06:27:07;95382.66;;;-1.14;96.46
43553;BME280;29153;42.696;23.218;2023-02-17T06:29:35;95381.85;;;-1.00;96.23
43553;BME280;29153;42.696;23.218;2023-02-17T06:32:02;95385.77;;;-0.89;96.09
43553;BME280;29153;42.696;23.218;2023-02-17T06:34:30;95386.25;;;-0.75;96.01
43553;BME280;29153;42.696;23.218;2023-02-17T06:36:57;95382.23;;;-0.67;95.97
43553;BME280;29153;42.696;23.218;2023-02-17T06:39:25;95390.63;;;-0.61;96.12
43553;BME280;29153;42.696;23.218;2023-02-17T06:41:52;95385.19;;;-0.45;95.88
43553;BME280;29153;42.696;23.218;2023-02-17T06:44:20;95387.73;;;-0.41;95.72
43553;BME280;29153;42.696;23.218;2023-02-17T06:46:47;95388.55;;;-0.19;95.56
43553;BME280;29153;42.696;23.218;2023-02-17T06:49:15;95384.28;;;-0.06;95.29
43553;BME280;29153;42.696;23.218;2023-02-17T06:51:42;95392.39;;;0.06;95.09
43553;BME280;29153;42.696;23.218;2023-02-17T06:54:10;95392.23;;;0.35;94.44
43553;BME280;29153;42.696;23.218;2023-02-17T06:56:37;95389.47;;;0.54;93.75
43553;BME280;29153;42.696;23.218;2023-02-17T06:59:05;95397.38;;;0.67;93.46
43553;BME280;29153;42.696;23.218;2023-02-17T07:01:32;95391.63;;;0.96;92.71
43553;BME280;29153;42.696;23.218;2023-02-17T07:04:00;95401.63;;;1.33;89.53
43553;BME280;29153;42.696;23.218;2023-02-17T07:06:27;95395.96;;;1.77;86.58
43553;BME280;29153;42.696;23.218;2023-02-17T07:08:55;95397.55;;;2.21;83.71
43553;BME280;29153;42.696;23.218;2023-02-17T07:11:22;95390.91;;;2.58;81.29
43553;BME280;29153;42.696;23.218;2023-02-17T07:13:50;95400.70;;;2.96;79.15
43553;BME280;29153;42.696;23.218;2023-02-17T07:16:18;95396.10;;;3.27;77.97
43553;BME280;29153;42.696;23.218;2023-02-17T07:18:45;95404.37;;;3.75;75.63
43553;BME280;29153;42.696;23.218;2023-02-17T07:21:13;95409.89;;;4.29;74.69
43553;BME280;29153;42.696;23.218;2023-02-17T07:23:40;95413.85;;;4.88;71.01
43553;BME280;29153;42.696;23.218;2023-02-17T07:26:09;95418.08;;;5.50;70.13
43553;BME280;29153;42.696;23.218;2023-02-17T07:28:39;95415.59;;;6.12;71.35
43553;BME280;29153;42.696;23.218;2023-02-17T07:33:57;95422.30;;;7.26;67.14
43553;BME280;29153;42.696;23.218;2023-02-17T07:36:25;95424.34;;;7.73;60.89
43553;BME280;29153;42.696;23.218;2023-02-17T07:38:53;95429.17;;;8.18;63.33
43553;BME280;29153;42.696;23.218;2023-02-17T07:41:22;95430.18;;;8.43;60.79
43553;BME280;29153;42.696;23.218;2023-02-17T07:43:55;95426.42;;;9.03;61.51
43553;BME280;29153;42.696;23.218;2023-02-17T07:46:24;95431.54;;;9.65;58.28
43553;BME280;29153;42.696;23.218;2023-02-17T07:48:51;95436.39;;;9.92;54.08
43553;BME280;29153;42.696;23.218;2023-02-17T07:51:20;95429.72;;;10.12;54.71
43553;BME280;29153;42.696;23.218;2023-02-17T07:53:49;95428.38;;;10.31;55.98
43553;BME280;29153;42.696;23.218;2023-02-17T07:56:19;95428.52;;;10.46;53.18
43553;BME280;29153;42.696;23.218;2023-02-17T07:58:47;95432.13;;;10.35;49.45
43553;BME280;29153;42.696;23.218;2023-02-17T08:01:17;95431.94;;;10.44;50.25
43553;BME280;29153;42.696;23.218;2023-02-17T08:03:46;95435.26;;;10.56;49.79
43553;BME280;29153;42.696;23.218;2023-02-17T08:06:14;95434.80;;;10.64;51.30
43553;BME280;29153;42.696;23.218;2023-02-17T08:08:42;95430.90;;;10.74;51.49
43553;BME280;29153;42.696;23.218;2023-02-17T08:11:29;95434.13;;;10.79;49.91
43553;BME280;29153;42.696;23.218;2023-02-17T08:14:15;95430.63;;;11.03;49.85
43553;BME280;29153;42.696;23.218;2023-02-17T08:16:42;95433.65;;;11.16;47.39
43553;BME280;29153;42.696;23.218;2023-02-17T08:19:10;95433.89;;;11.15;47.43
43553;BME280;29153;42.696;23.218;2023-02-17T08:21:37;95434.69;;;11.15;49.42
43553;BME280;29153;42.696;23.218;2023-02-17T08:24:05;95430.23;;;11.21;47.91
43553;BME280;29153;42.696;23.218;2023-02-17T08:26:32;95429.80;;;11.39;46.25
43553;BME280;29153;42.696;23.218;2023-02-17T08:29:00;95430.92;;;11.48;43.76
43553;BME280;29153;42.696;23.218;2023-02-17T08:31:30;95423.28;;;11.57;45.70
43553;BME280;29153;42.696;23.218;2023-02-17T08:33:59;95431.55;;;11.65;44.49
43553;BME280;29153;42.696;23.218;2023-02-17T08:36:27;95429.21;;;11.71;43.48
43553;BME280;29153;42.696;23.218;2023-02-17T08:38:57;95424.80;;;11.84;43.84
43553;BME280;29153;42.696;23.218;2023-02-17T08:41:33;95422.69;;;11.92;45.91
43553;BME280;29153;42.696;23.218;2023-02-17T08:44:05;95426.12;;;11.90;42.55
43553;BME280;29153;42.696;23.218;2023-02-17T08:46:31;95418.16;;;11.84;42.74
43553;BME280;29153;42.696;23.218;2023-02-17T08:48:58;95422.27;;;12.25;40.17
43553;BME280;29153;42.696;23.218;2023-02-17T08:51:27;95422.27;;;12.25;40.17
43553;BME280;29153;42.696;23.218;2023-02-17T08:53:57;95427.63;;;12.35;38.71
43553;BME280;29153;42.696;23.218;2023-02-17T08:56:26;95424.40;;;12.28;38.55
43553;BME280;29153;42.696;23.218;2023-02-17T08:58:54;95431.87;;;12.31;38.70
43553;BME280;29153;42.696;23.218;2023-02-17T09:01:23;95426.27;;;12.32;38.60
43553;BME280;29153;42.696;23.218;2023-02-17T09:03:50;95423.40;;;12.54;40.09
43553;BME280;29153;42.696;23.218;2023-02-17T09:06:18;95425.03;;;12.65;39.08
43553;BME280;29153;42.696;23.218;2023-02-17T09:08:47;95425.03;;;12.65;39.08
43553;BME280;29153;42.696;23.218;2023-02-17T09:11:15;95415.20;;;12.73;38.16
43553;BME280;29153;42.696;23.218;2023-02-17T09:13:45;95413.88;;;12.73;37.93
43553;BME280;29153;42.696;23.218;2023-02-17T09:16:12;95415.73;;;12.86;38.38
43553;BME280;29153;42.696;23.218;2023-02-17T09:18:40;95415.74;;;12.91;36.72
43553;BME280;29153;42.696;23.218;2023-02-17T09:21:10;95417.33;;;13.02;37.43
43553;BME280;29153;42.696;23.218;2023-02-17T09:23:39;95429.30;;;13.02;37.43
43553;BME280;29153;42.696;23.218;2023-02-17T09:26:09;95414.94;;;12.93;38.92
43553;BME280;29153;42.696;23.218;2023-02-17T09:28:37;95411.78;;;13.11;38.73
43553;BME280;29153;42.696;23.218;2023-02-17T09:31:08;95421.87;;;13.04;37.00
43553;BME280;29153;42.696;23.218;2023-02-17T09:33:35;95415.48;;;13.07;36.71
43553;BME280;29153;42.696;23.218;2023-02-17T09:36:12;95414.16;;;13.28;36.32
43553;BME280;29153;42.696;23.218;2023-02-17T09:38:33;95405.91;;;13.24;37.72
43553;BME280;29153;42.696;23.218;2023-02-17T09:41:20;95404.31;;;13.18;36.51
43553;BME280;29153;42.696;23.218;2023-02-17T09:43:47;95408.03;;;13.37;35.63
43553;BME280;29153;42.696;23.218;2023-02-17T09:46:34;95407.45;;;13.53;37.23
43553;BME280;29153;42.696;23.218;2023-02-17T09:49:00;95398.44;;;13.46;35.94
43553;BME280;29153;42.696;23.218;2023-02-17T09:54:17;95403.97;;;13.67;36.08
43553;BME280;29153;42.696;23.218;2023-02-17T09:56:47;95401.30;;;13.65;34.41
43553;BME280;29153;42.696;23.218;2023-02-17T09:59:19;95408.52;;;13.64;34.96
43553;BME280;29153;42.696;23.218;2023-02-17T10:01:48;95398.91;;;13.66;35.12
43553;BME280;29153;42.696;23.218;2023-02-17T10:06:58;95398.66;;;13.57;34.74
43553;BME280;29153;42.696;23.218;2023-02-17T10:09:36;95399.72;;;13.64;35.61
43553;BME280;29153;42.696;23.218;2023-02-17T10:12:19;95392.48;;;13.75;35.43
43553;BME280;29153;42.696;23.218;2023-02-17T10:14:45;95393.31;;;13.73;36.69
43553;BME280;29153;42.696;23.218;2023-02-17T10:17:21;95389.02;;;13.82;35.77
43553;BME280;29153;42.696;23.218;2023-02-17T10:20:08;95387.08;;;13.97;35.42
43553;BME280;29153;42.696;23.218;2023-02-17T10:22:35;95383.06;;;14.00;34.57
43553;BME280;29153;42.696;23.218;2023-02-17T10:25:18;95384.41;;;13.95;36.12
43553;BME280;29153;42.696;23.218;2023-02-17T10:27:58;95376.95;;;13.97;33.09
43553;BME280;29153;42.696;23.218;2023-02-17T10:30:32;95377.45;;;14.06;34.73
43553;BME280;29153;42.696;23.218;2023-02-17T10:33:35;95375.31;;;14.03;33.72
43553;BME280;29153;42.696;23.218;2023-02-17T10:38:55;95368.38;;;14.10;34.21
43553;BME280;29153;42.696;23.218;2023-02-17T10:41:32;95366.51;;;14.10;35.34
43553;BME280;29153;42.696;23.218;2023-02-17T10:44:04;95363.27;;;14.19;35.14
43553;BME280;29153;42.696;23.218;2023-02-17T10:46:31;95359.97;;;14.34;33.33
43553;BME280;29153;42.696;23.218;2023-02-17T10:49:00;95348.00;;;14.29;34.82
43553;BME280;29153;42.696;23.218;2023-02-17T10:51:29;95351.52;;;14.25;34.01
43553;BME280;29153;42.696;23.218;2023-02-17T10:54:02;95345.63;;;14.28;33.99
43553;BME280;29153;42.696;23.218;2023-02-17T10:56:34;95337.88;;;14.31;34.17
43553;BME280;29153;42.696;23.218;2023-02-17T10:59:26;95344.87;;;14.17;33.75
43553;BME280;29153;42.696;23.218;2023-02-17T11:01:59;95337.39;;;14.24;33.79
43553;BME280;29153;42.696;23.218;2023-02-17T11:04:26;95351.83;;;14.13;34.11
43553;BME280;29153;42.696;23.218;2023-02-17T11:07:02;95341.53;;;13.96;34.69
43553;BME280;29153;42.696;23.218;2023-02-17T11:09:27;95339.52;;;13.71;35.43
43553;BME280;29153;42.696;23.218;2023-02-17T11:14:30;95331.09;;;14.05;35.30
43553;BME280;29153;42.696;23.218;2023-02-17T11:17:03;95334.65;;;13.90;35.00
43553;BME280;29153;42.696;23.218;2023-02-17T11:19:33;95334.65;;;13.90;35.00
43553;BME280;29153;42.696;23.218;2023-02-17T11:22:17;95327.85;;;14.16;36.27
43553;BME280;29153;42.696;23.218;2023-02-17T11:24:35;95334.51;;;14.13;34.56
43553;BME280;29153;42.696;23.218;2023-02-17T11:27:09;95334.51;;;14.13;34.56
43553;BME280;29153;42.696;23.218;2023-02-17T11:29:37;95326.33;;;14.02;35.63
43553;BME280;29153;42.696;23.218;2023-02-17T11:32:07;95326.33;;;14.02;35.63
43553;BME280;29153;42.696;23.218;2023-02-17T11:34:37;95314.60;;;14.03;35.86
43553;BME280;29153;42.696;23.218;2023-02-17T11:39:50;95320.22;;;13.99;33.27
43553;BME280;29153;42.696;23.218;2023-02-17T11:42:26;95317.89;;;13.85;34.11
43553;BME280;29153;42.696;23.218;2023-02-17T11:44:57;95317.89;;;13.85;34.11
43553;BME280;29153;42.696;23.218;2023-02-17T11:47:42;95301.08;;;13.87;36.95
43553;BME280;29153;42.696;23.218;2023-02-17T11:52:45;95309.37;;;13.85;36.28
43553;BME280;29153;42.696;23.218;2023-02-17T11:55:45;95305.56;;;13.96;35.86
43553;BME280;29153;42.696;23.218;2023-02-17T12:01:07;95294.16;;;13.88;34.30
43553;BME280;29153;42.696;23.218;2023-02-17T12:03:46;95298.73;;;13.80;34.04
43553;BME280;29153;42.696;23.218;2023-02-17T12:06:13;95285.75;;;13.68;33.33
43553;BME280;29153;42.696;23.218;2023-02-17T12:25:49;95260.25;;;13.52;35.88
43553;BME280;29153;42.696;23.218;2023-02-17T12:36:18;95249.62;;;13.50;34.50
43553;BME280;29153;42.696;23.218;2023-02-17T12:38:58;95244.37;;;13.35;35.38
43553;BME280;29153;42.696;23.218;2023-02-17T12:44:00;95223.31;;;13.41;34.92
43553;BME280;29153;42.696;23.218;2023-02-17T12:46:31;95223.31;;;13.41;34.92
43553;BME280;29153;42.696;23.218;2023-02-17T12:49:15;95237.45;;;13.34;34.62
43553;BME280;29153;42.696;23.218;2023-02-17T12:51:44;95226.02;;;13.33;34.57
43553;BME280;29153;42.696;23.218;2023-02-17T12:54:21;95218.03;;;13.33;34.82
43553;BME280;29153;42.696;23.218;2023-02-17T12:57:05;95221.48;;;13.34;36.22
43553;BME280;29153;42.696;23.218;2023-02-17T12:59:36;95211.64;;;13.34;34.29
43553;BME280;29153;42.696;23.218;2023-02-17T13:02:10;95211.64;;;13.34;34.29
43553;BME280;29153;42.696;23.218;2023-02-17T13:04:38;95216.90;;;13.44;34.83
43553;BME280;29153;42.696;23.218;2023-02-17T13:09:45;95222.20;;;13.49;34.08
43553;BME280;29153;42.696;23.218;2023-02-17T13:15:24;95215.81;;;13.50;33.37
43553;BME280;29153;42.696;23.218;2023-02-17T13:17:39;95222.98;;;13.55;33.73
43553;BME280;29153;42.696;23.218;2023-02-17T13:22:42;95220.03;;;13.59;33.30
43553;BME280;29153;42.696;23.218;2023-02-17T13:25:33;95217.44;;;13.46;33.75
43553;BME280;29153;42.696;23.218;2023-02-17T13:27:40;95222.20;;;13.49;32.79
43553;BME280;29153;42.696;23.218;2023-02-17T13:33:24;95216.09;;;13.44;33.82
43553;BME280;29153;42.696;23.218;2023-02-17T13:35:36;95211.59;;;13.39;33.13
43553;BME280;29153;42.696;23.218;2023-02-17T13:38:04;95213.46;;;13.41;32.44
43553;BME280;29153;42.696;23.218;2023-02-17T13:40:40;95213.17;;;13.45;33.37
43553;BME280;29153;42.696;23.218;2023-02-17T13:43:16;95204.48;;;13.30;34.49
43553;BME280;29153;42.696;23.218;2023-02-17T13:45:47;95206.61;;;13.30;33.38
43553;BME280;29153;42.696;23.218;2023-02-17T13:48:23;95198.63;;;13.30;31.98
43553;BME280;29153;42.696;23.218;2023-02-17T13:50:56;95208.72;;;13.33;32.91
43553;BME280;29153;42.696;23.218;2023-02-17T13:53:41;95202.66;;;13.20;32.03
43553;BME280;29153;42.696;23.218;2023-02-17T13:56:22;95202.66;;;13.20;32.03
43553;BME280;29153;42.696;23.218;2023-02-17T13:58:42;95199.44;;;13.23;31.64
43553;BME280;29153;42.696;23.218;2023-02-17T14:01:19;95219.97;;;13.17;31.18
43553;BME280;29153;42.696;23.218;2023-02-17T14:03:50;95219.97;;;13.17;31.18
43553;BME280;29153;42.696;23.218;2023-02-17T14:09:41;95214.69;;;12.95;31.04
43553;BME280;29153;42.696;23.218;2023-02-17T14:12:00;95215.48;;;12.93;32.25
43553;BME280;29153;42.696;23.218;2023-02-17T14:14:35;95207.55;;;12.83;32.82
43553;BME280;29153;42.696;23.218;2023-02-17T14:17:26;95207.55;;;12.83;32.82
43553;BME280;29153;42.696;23.218;2023-02-17T14:19:47;95216.33;;;12.83;34.07
43553;BME280;29153;42.696;23.218;2023-02-17T14:22:27;95217.64;;;12.81;33.10
43553;BME280;29153;42.696;23.218;2023-02-17T14:25:04;95219.53;;;12.62;33.59
43553;BME280;29153;42.696;23.218;2023-02-17T14:27:45;95222.50;;;12.38;34.90
43553;BME280;29153;42.696;23.218;2023-02-17T14:30:15;95219.58;;;12.35;35.41
43553;BME280;29153;42.696;23.218;2023-02-17T14:32:43;95217.19;;;12.20;36.37